createdAt,value
2023-11-18T00:00:55.205Z,93.44
2023-11-18T00:01:55.180Z,93.44
2023-11-18T00:02:55.336Z,93.44
2023-11-18T00:03:55.142Z,93.44
2023-11-18T00:04:55.268Z,93.34
2023-11-18T00:05:55.095Z,93.24
2023-11-18T00:06:55.083Z,93.24
2023-11-18T00:07:55.098Z,93.24
2023-11-18T00:08:55.097Z,93.24
2023-11-18T00:09:55.063Z,93.44
2023-11-18T00:10:55.150Z,93.44
2023-11-18T00:11:55.051Z,93.75
2023-11-18T00:12:55.018Z,93.13
2023-11-18T00:13:55.108Z,93.75
2023-11-18T00:14:55.068Z,93.24
2023-11-18T00:15:54.988Z,93.24
2023-11-18T00:16:55.065Z,93.24
2023-11-18T00:17:55.009Z,93.75
2023-11-18T00:18:54.952Z,93.44
2023-11-18T00:19:55.124Z,93.24
2023-11-18T00:20:54.944Z,93.24
2023-11-18T00:21:54.912Z,93.75
2023-11-18T00:22:54.917Z,93.28
2023-11-18T00:23:54.891Z,93.34
2023-11-18T00:24:54.891Z,93.44
2023-11-18T00:25:54.913Z,93.69
2023-11-18T00:26:54.876Z,93.34
2023-11-18T00:27:54.873Z,93.34
2023-11-18T00:28:54.918Z,93.34
2023-11-18T00:29:54.846Z,93.13
2023-11-18T00:30:54.851Z,93.38
2023-11-18T00:31:54.867Z,93.49
2023-11-18T00:32:54.996Z,93.44
2023-11-18T00:33:54.780Z,93.34
2023-11-18T00:34:54.845Z,93.49
2023-11-18T00:35:54.757Z,93.38
2023-11-18T00:36:54.744Z,93.03
2023-11-18T00:37:54.778Z,93.24
2023-11-18T00:38:54.818Z,93.28
2023-11-18T00:39:54.714Z,93.28
2023-11-18T00:40:54.739Z,93.34
2023-11-18T00:41:54.688Z,93.28
2023-11-18T00:42:54.687Z,93.34
2023-11-18T00:43:54.790Z,93.24
2023-11-18T00:44:54.671Z,93.24
2023-11-18T00:45:54.646Z,93.24
2023-11-18T00:46:54.676Z,93.34
2023-11-18T00:47:54.670Z,93.13
2023-11-18T00:48:54.631Z,93.24
2023-11-18T00:49:54.694Z,93.24
2023-11-18T00:50:54.599Z,93.44
2023-11-18T00:51:54.573Z,93.34
2023-11-18T00:52:54.625Z,93.24
2023-11-18T00:53:54.555Z,93.44
2023-11-18T00:54:54.561Z,93.34
2023-11-18T00:55:54.603Z,93.44
2023-11-18T00:56:54.692Z,93.44
2023-11-18T00:57:54.505Z,93.34
2023-11-18T00:58:54.593Z,93.34
2023-11-18T00:59:54.498Z,93.44
2023-11-18T01:00:54.499Z,93.24
2023-11-18T01:01:54.489Z,93.75
2023-11-18T01:02:54.606Z,93.24
2023-11-18T01:03:54.483Z,93.34
2023-11-18T01:04:54.501Z,93.34
2023-11-18T01:05:54.416Z,93.34
2023-11-18T01:06:54.414Z,93.34
2023-11-18T01:07:54.455Z,93.34
2023-11-18T01:08:54.430Z,93.34
2023-11-18T01:09:54.377Z,93.24
2023-11-18T01:10:54.405Z,93.24
2023-11-18T01:12:07.620Z,93.24
2023-11-18T01:12:55.340Z,93.24
2023-11-18T01:13:54.359Z,93.75
2023-11-18T01:14:54.402Z,93.75
2023-11-18T01:15:54.312Z,93.44
2023-11-18T01:16:54.325Z,93.34
2023-11-18T01:17:54.383Z,93.34
2023-11-18T01:18:54.305Z,93.24
2023-11-18T01:19:54.283Z,93.75
2023-11-18T01:20:54.448Z,93.13
2023-11-18T01:21:54.266Z,92.61
2023-11-18T01:22:54.241Z,92.61
2023-11-18T01:23:54.219Z,92.61
2023-11-18T01:24:54.228Z,93.03
2023-11-18T01:25:54.250Z,93.13
2023-11-18T01:26:54.279Z,92.61
2023-11-18T01:27:54.171Z,92.82
2023-11-18T01:28:54.182Z,93.03
2023-11-18T01:29:54.148Z,92.72
2023-11-18T01:30:54.205Z,92.82
2023-11-18T01:31:54.206Z,93.03
2023-11-18T01:32:54.197Z,92.82
2023-11-18T01:33:54.122Z,92.93
2023-11-18T01:34:54.121Z,92.82
2023-11-18T01:35:54.083Z,92.97
2023-11-18T01:36:54.203Z,93.18
2023-11-18T01:37:54.118Z,93.18
2023-11-18T01:38:54.168Z,92.86
2023-11-18T01:39:54.036Z,92.97
2023-11-18T01:40:54.037Z,92.76
2023-11-18T01:41:54.017Z,92.97
2023-11-18T01:42:54.004Z,92.86
2023-11-18T01:43:54.092Z,92.86
2023-11-18T01:44:54.026Z,92.66
2023-11-18T01:45:53.983Z,92.66
2023-11-18T01:46:53.961Z,92.97
2023-11-18T01:47:53.981Z,92.97
2023-11-18T01:48:53.934Z,92.86
2023-11-18T01:49:53.940Z,93.07
2023-11-18T01:50:53.966Z,92.76
2023-11-18T01:51:53.910Z,92.86
2023-11-18T01:52:53.962Z,92.97
2023-11-18T01:53:53.876Z,93.18
2023-11-18T01:54:53.868Z,93.18
2023-11-18T01:55:53.888Z,93.18
2023-11-18T01:56:53.873Z,93.28
2023-11-18T01:57:53.850Z,93.28
2023-11-18T01:58:53.843Z,93.38
2023-11-18T01:59:53.817Z,93.79
2023-11-18T02:00:53.800Z,93.79
2023-11-18T02:01:53.893Z,93.69
2023-11-18T02:02:53.936Z,93.18
2023-11-18T02:03:53.907Z,93.24
2023-11-18T02:04:53.783Z,92.72
2023-11-18T02:05:53.773Z,92.82
2023-11-18T02:06:53.747Z,92.66
2023-11-18T02:07:53.782Z,92.93
2023-11-18T02:08:53.760Z,92.82
2023-11-18T02:09:53.697Z,92.72
2023-11-18T02:10:53.700Z,92.76
2023-11-18T02:11:53.697Z,92.97
2023-11-18T02:12:53.661Z,92.97
2023-11-18T02:13:53.686Z,92.76
2023-11-18T02:14:53.660Z,93.07
2023-11-18T02:15:53.655Z,92.97
2023-11-18T02:16:53.625Z,93.07
2023-11-18T02:17:53.698Z,92.97
2023-11-18T02:18:53.689Z,92.86
2023-11-18T02:19:53.679Z,92.86
2023-11-18T02:20:53.617Z,93.07
2023-11-18T02:21:53.562Z,93.03
2023-11-18T02:22:53.581Z,92.46
2023-11-18T02:23:53.541Z,92.35
2023-11-18T02:24:53.557Z,92.82
2023-11-18T02:25:53.540Z,92.55
2023-11-18T02:26:53.532Z,92.14
2023-11-18T02:27:53.492Z,92.86
2023-11-18T02:28:53.638Z,92.35
2023-11-18T02:29:53.564Z,92.25
2023-11-18T02:30:53.461Z,92.46
2023-11-18T02:31:53.474Z,92.46
2023-11-18T02:32:53.505Z,92.25
2023-11-18T02:33:53.537Z,92.25
2023-11-18T02:34:53.484Z,92.55
2023-11-18T02:35:53.424Z,92.55
2023-11-18T02:36:53.405Z,92.35
2023-11-18T02:37:53.423Z,92.35
2023-11-18T02:38:53.381Z,92.04
2023-11-18T02:39:53.399Z,92.46
2023-11-18T02:40:53.406Z,92.04
2023-11-18T02:41:53.349Z,92.14
2023-11-18T02:42:53.321Z,92.25
2023-11-18T02:43:53.353Z,92.14
2023-11-18T02:44:53.390Z,92.35
2023-11-18T02:45:53.333Z,92.25
2023-11-18T02:46:53.312Z,92.25
2023-11-18T02:47:53.362Z,92.19
2023-11-18T02:48:53.256Z,92.08
2023-11-18T02:49:53.289Z,92.25
2023-11-18T02:50:53.245Z,92.50
2023-11-18T02:51:53.233Z,92.50
2023-11-18T02:52:53.271Z,92.60
2023-11-18T02:53:53.219Z,92.50
2023-11-18T02:54:53.186Z,92.29
2023-11-18T02:55:53.270Z,92.08
2023-11-18T02:56:53.213Z,92.74
2023-11-18T02:57:53.235Z,92.23
2023-11-18T02:58:53.172Z,92.29
2023-11-18T02:59:53.161Z,92.29
2023-11-18T03:00:53.118Z,92.19
2023-11-18T03:01:53.228Z,92.29
2023-11-18T03:02:53.865Z,92.19
2023-11-18T03:03:53.098Z,92.40
2023-11-18T03:04:53.157Z,92.23
2023-11-18T03:05:53.062Z,92.08
2023-11-18T03:06:53.055Z,92.44
2023-11-18T03:07:53.112Z,92.23
2023-11-18T03:08:53.084Z,92.19
2023-11-18T03:09:53.014Z,92.44
2023-11-18T03:10:53.061Z,92.33
2023-11-18T03:11:52.994Z,92.74
2023-11-18T03:12:53.010Z,92.60
2023-11-18T03:13:53.012Z,92.70
2023-11-18T03:14:52.993Z,92.74
2023-11-18T03:15:52.989Z,92.95
2023-11-18T03:16:52.950Z,93.22
2023-11-18T03:17:53.117Z,92.95
2023-11-18T03:18:52.927Z,92.74
2023-11-18T03:19:53.010Z,92.54
2023-11-18T03:20:52.921Z,92.40
2023-11-18T03:21:52.881Z,93.12
2023-11-18T03:22:53.336Z,92.33
2023-11-18T03:23:52.862Z,92.50
2023-11-18T03:24:52.882Z,93.12
2023-11-18T03:25:52.888Z,93.01
2023-11-18T03:26:52.905Z,93.12
2023-11-18T03:27:52.854Z,93.01
2023-11-18T03:28:52.868Z,93.01
2023-11-18T03:29:53.998Z,92.91
2023-11-18T03:30:52.805Z,93.12
2023-11-18T03:31:52.777Z,92.85
2023-11-18T03:32:52.803Z,92.80
2023-11-18T03:33:52.766Z,93.12
2023-11-18T03:34:52.829Z,92.70
2023-11-18T03:35:52.727Z,93.16
2023-11-18T03:36:52.709Z,92.91
2023-11-18T03:37:52.721Z,93.01
2023-11-18T03:38:52.763Z,92.80
2023-11-18T03:39:52.671Z,92.95
2023-11-18T03:40:52.688Z,93.12
2023-11-18T03:41:52.699Z,92.74
2023-11-18T03:42:52.635Z,92.85
2023-11-18T03:43:52.639Z,93.01
2023-11-18T03:44:52.676Z,93.12
2023-11-18T03:45:52.673Z,93.05
2023-11-18T03:46:52.631Z,93.12
2023-11-18T03:47:52.713Z,93.01
2023-11-18T03:48:52.573Z,93.12
2023-11-18T03:49:52.593Z,93.01
2023-11-18T03:50:52.672Z,93.01
2023-11-18T03:51:52.539Z,93.01
2023-11-18T03:52:52.588Z,93.01
2023-11-18T03:53:52.515Z,92.86
2023-11-18T03:54:52.503Z,92.86
2023-11-18T03:55:52.537Z,93.22
2023-11-18T03:56:52.513Z,92.80
2023-11-18T03:57:52.473Z,92.91
2023-11-18T03:58:52.500Z,93.22
2023-11-18T03:59:52.446Z,92.86
2023-11-18T04:00:52.462Z,92.91
2023-11-18T04:01:52.542Z,92.76
2023-11-18T04:02:52.449Z,92.86
2023-11-18T04:03:52.495Z,92.86
2023-11-18T04:04:52.434Z,92.76
2023-11-18T04:05:52.377Z,92.97
2023-11-18T04:06:52.399Z,92.97
2023-11-18T04:07:52.382Z,92.97
2023-11-18T04:08:52.401Z,93.07
2023-11-18T04:09:52.332Z,92.76
2023-11-18T04:10:52.343Z,92.97
2023-11-18T04:11:52.311Z,92.76
2023-11-18T04:12:52.310Z,92.76
2023-11-18T04:13:52.317Z,93.07
2023-11-18T04:14:52.345Z,92.35
2023-11-18T04:15:52.290Z,92.35
2023-11-18T04:16:52.413Z,92.86
2023-11-18T04:17:52.396Z,93.07
2023-11-18T04:18:52.311Z,92.35
2023-11-18T04:19:52.262Z,92.97
2023-11-18T04:20:52.247Z,92.76
2023-11-18T04:21:52.200Z,92.66
2023-11-18T04:22:52.232Z,92.86
2023-11-18T04:23:52.185Z,93.07
2023-11-18T04:24:52.187Z,92.97
2023-11-18T04:25:52.207Z,92.86
2023-11-18T04:26:52.238Z,92.76
2023-11-18T04:27:52.129Z,92.86
2023-11-18T04:28:52.222Z,92.86
2023-11-18T04:29:52.102Z,92.86
2023-11-18T04:30:52.136Z,93.07
2023-11-18T04:31:52.123Z,92.86
2023-11-18T04:32:52.163Z,93.07
2023-11-18T04:33:52.062Z,92.97
2023-11-18T04:34:52.127Z,93.07
2023-11-18T04:35:52.058Z,93.07
2023-11-18T04:36:52.066Z,93.18
2023-11-18T04:37:52.065Z,92.86
2023-11-18T04:38:52.120Z,93.07
2023-11-18T04:39:52.003Z,93.07
2023-11-18T04:40:52.006Z,93.07
2023-11-18T04:41:51.992Z,92.97
2023-11-18T04:42:52.118Z,92.97
2023-11-18T04:43:52.126Z,92.76
2023-11-18T04:44:51.981Z,93.07
2023-11-18T04:45:51.948Z,92.86
2023-11-18T04:46:51.966Z,93.07
2023-11-18T04:47:52.008Z,93.07
2023-11-18T04:48:52.052Z,92.97
2023-11-18T04:49:51.914Z,92.86
2023-11-18T04:50:51.907Z,92.86
2023-11-18T04:51:51.859Z,92.76
2023-11-18T04:52:51.877Z,92.66
2023-11-18T04:53:51.857Z,92.76
2023-11-18T04:54:51.822Z,92.86
2023-11-18T04:55:51.887Z,92.86
2023-11-18T04:56:51.848Z,93.07
2023-11-18T04:57:51.794Z,92.66
2023-11-18T04:58:51.820Z,92.86
2023-11-18T04:59:51.785Z,93.07
2023-11-18T05:00:51.791Z,93.07
2023-11-18T05:01:51.837Z,92.55
2023-11-18T05:02:51.865Z,93.28
2023-11-18T05:03:51.819Z,93.07
2023-11-18T05:04:51.793Z,93.07
2023-11-18T05:05:53.337Z,93.07
2023-11-18T05:06:51.686Z,92.97
2023-11-18T05:07:51.881Z,92.76
2023-11-18T05:08:51.780Z,92.97
2023-11-18T05:09:51.754Z,92.86
2023-11-18T05:10:51.985Z,92.97
2023-11-18T05:11:51.627Z,92.86
2023-11-18T05:12:51.634Z,92.76
2023-11-18T05:13:51.650Z,92.97
2023-11-18T05:14:51.699Z,92.76
2023-11-18T05:15:51.588Z,93.01
2023-11-18T05:16:51.614Z,92.86
2023-11-18T05:17:51.653Z,92.91
2023-11-18T05:18:51.564Z,92.80
2023-11-18T05:19:51.637Z,92.80
2023-11-18T05:20:51.595Z,92.80
2023-11-18T05:21:51.530Z,93.01
2023-11-18T05:22:51.570Z,92.97
2023-11-18T05:23:51.518Z,92.86
2023-11-18T05:24:51.488Z,93.01
2023-11-18T05:25:51.514Z,92.86
2023-11-18T05:26:51.508Z,93.01
2023-11-18T05:27:51.463Z,92.91
2023-11-18T05:28:51.547Z,92.86
2023-11-18T05:29:51.425Z,92.97
2023-11-18T05:30:51.473Z,92.97
2023-11-18T05:31:51.453Z,93.01
2023-11-18T05:32:51.493Z,93.07
2023-11-18T05:33:51.381Z,92.91
2023-11-18T05:34:51.478Z,93.01
2023-11-18T05:35:51.359Z,92.80
2023-11-18T05:36:51.381Z,92.80
2023-11-18T05:37:51.363Z,92.80
2023-11-18T05:38:51.353Z,92.76
2023-11-18T05:39:51.313Z,92.91
2023-11-18T05:40:51.351Z,92.70
2023-11-18T05:41:51.290Z,92.70
2023-11-18T05:42:51.288Z,92.70
2023-11-18T05:43:51.323Z,93.07
2023-11-18T05:44:51.297Z,92.86
2023-11-18T05:45:51.269Z,93.07
2023-11-18T05:46:51.363Z,93.18
2023-11-18T05:47:51.271Z,93.07
2023-11-18T05:48:51.213Z,93.12
2023-11-18T05:49:51.221Z,93.32
2023-11-18T05:50:51.224Z,93.07
2023-11-18T05:51:51.176Z,93.32
2023-11-18T05:52:51.301Z,92.35
2023-11-18T05:53:51.152Z,92.35
2023-11-18T05:54:51.154Z,92.50
2023-11-18T05:55:51.198Z,93.12
2023-11-18T05:56:51.136Z,92.86
2023-11-18T05:57:51.128Z,93.12
2023-11-18T05:58:51.157Z,92.70
2023-11-18T05:59:51.085Z,92.86
2023-11-18T06:00:51.089Z,92.86
2023-11-18T06:01:51.102Z,92.35
2023-11-18T06:02:51.171Z,92.70
2023-11-18T06:03:51.249Z,92.66
2023-11-18T06:04:51.046Z,92.25
2023-11-18T06:05:51.130Z,92.60
2023-11-18T06:06:51.011Z,92.70
2023-11-18T06:07:51.000Z,92.35
2023-11-18T06:08:51.062Z,92.19
2023-11-18T06:09:50.979Z,92.19
2023-11-18T06:10:51.045Z,92.46
2023-11-18T06:11:51.115Z,91.98
2023-11-18T06:12:50.935Z,92.40
2023-11-18T06:13:51.057Z,92.08
2023-11-18T06:14:50.929Z,92.19
2023-11-18T06:15:50.929Z,92.29
2023-11-18T06:16:51.005Z,92.19
2023-11-18T06:17:50.995Z,92.08
2023-11-18T06:18:50.876Z,92.50
2023-11-18T06:19:50.966Z,92.70
2023-11-18T06:20:50.871Z,92.91
2023-11-18T06:21:50.841Z,92.91
2023-11-18T06:22:50.841Z,92.70
2023-11-18T06:23:50.815Z,92.50
2023-11-18T06:24:50.846Z,92.64
2023-11-18T06:25:50.827Z,92.40
2023-11-18T06:26:50.825Z,92.40
2023-11-18T06:27:50.792Z,92.64
2023-11-18T06:28:50.825Z,92.70
2023-11-18T06:29:50.766Z,92.64
2023-11-18T06:30:50.741Z,92.64
2023-11-18T06:31:50.749Z,92.60
2023-11-18T06:32:50.792Z,92.91
2023-11-18T06:33:50.781Z,92.91
2023-11-18T06:34:50.921Z,92.70
2023-11-18T06:35:50.675Z,92.60
2023-11-18T06:36:50.662Z,92.60
2023-11-18T06:37:50.724Z,92.60
2023-11-18T06:38:50.649Z,92.60
2023-11-18T06:39:50.628Z,92.29
2023-11-18T06:40:50.660Z,92.40
2023-11-18T06:41:50.633Z,91.77
2023-11-18T06:42:50.593Z,92.40
2023-11-18T06:43:50.609Z,92.60
2023-11-18T06:44:50.623Z,92.60
2023-11-18T06:45:50.565Z,92.50
2023-11-18T06:46:50.612Z,92.80
2023-11-18T06:47:50.672Z,92.80
2023-11-18T06:48:50.555Z,92.50
2023-11-18T06:49:50.522Z,92.29
2023-11-18T06:50:50.567Z,92.33
2023-11-18T06:51:50.496Z,92.08
2023-11-18T06:52:50.537Z,92.80
2023-11-18T06:53:50.469Z,92.40
2023-11-18T06:54:50.458Z,92.40
2023-11-18T06:55:50.458Z,92.19
2023-11-18T06:56:50.508Z,92.19
2023-11-18T06:57:50.423Z,92.40
2023-11-18T06:58:50.432Z,91.88
2023-11-18T06:59:50.428Z,92.29
2023-11-18T07:00:51.105Z,91.88
2023-11-18T07:01:50.419Z,92.29
2023-11-18T07:02:50.552Z,91.88
2023-11-18T07:03:50.484Z,92.08
2023-11-18T07:04:50.365Z,92.19
2023-11-18T07:05:50.409Z,91.98
2023-11-18T07:06:50.319Z,92.50
2023-11-18T07:07:50.417Z,92.40
2023-11-18T07:08:50.345Z,92.70
2023-11-18T07:09:52.407Z,92.80
2023-11-18T07:10:50.331Z,92.55
2023-11-18T07:11:50.270Z,92.14
2023-11-18T07:12:50.282Z,92.19
2023-11-18T07:13:50.301Z,91.98
2023-11-18T07:14:50.309Z,91.88
2023-11-18T07:15:50.240Z,91.98
2023-11-18T07:16:50.396Z,91.92
2023-11-18T07:17:50.243Z,91.88
2023-11-18T07:18:50.210Z,91.88
2023-11-18T07:19:50.308Z,91.88
2023-11-18T07:20:50.178Z,92.08
2023-11-18T07:21:50.227Z,91.82
2023-11-18T07:22:50.170Z,91.50
2023-11-18T07:23:50.128Z,91.92
2023-11-18T07:24:50.138Z,91.92
2023-11-18T07:25:50.201Z,91.82
2023-11-18T07:26:50.368Z,91.82
2023-11-18T07:27:50.083Z,91.92
2023-11-18T07:28:50.132Z,91.71
2023-11-18T07:29:50.072Z,91.92
2023-11-18T07:30:50.144Z,92.02
2023-11-18T07:31:50.107Z,92.02
2023-11-18T07:32:50.067Z,91.86
2023-11-18T07:33:50.032Z,92.44
2023-11-18T07:34:50.072Z,92.33
2023-11-18T07:35:49.991Z,92.54
2023-11-18T07:36:50.046Z,92.64
2023-11-18T07:37:50.018Z,92.33
2023-11-18T07:38:50.006Z,92.13
2023-11-18T07:39:49.948Z,92.13
2023-11-18T07:40:49.989Z,92.23
2023-11-18T07:41:49.938Z,92.23
2023-11-18T07:42:49.929Z,92.13
2023-11-18T07:43:49.921Z,92.44
2023-11-18T07:44:49.958Z,91.92
2023-11-18T07:45:49.897Z,92.54
2023-11-18T07:46:50.031Z,92.64
2023-11-18T07:47:50.415Z,92.44
2023-11-18T07:48:49.840Z,91.82
2023-11-18T07:49:49.896Z,92.13
2023-11-18T07:50:49.835Z,92.74
2023-11-18T07:51:49.839Z,92.70
2023-11-18T07:52:49.860Z,92.60
2023-11-18T07:53:49.829Z,92.70
2023-11-18T07:54:52.956Z,91.82
2023-11-18T07:55:49.807Z,91.92
2023-11-18T07:56:49.781Z,92.29
2023-11-18T07:57:49.761Z,92.40
2023-11-18T07:58:49.785Z,92.29
2023-11-18T07:59:49.835Z,92.08
2023-11-18T08:00:49.729Z,91.98
2023-11-18T08:01:49.857Z,91.88
2023-11-18T08:02:49.770Z,92.19
2023-11-18T08:03:49.759Z,92.19
2023-11-18T08:04:49.674Z,92.29
2023-11-18T08:05:49.648Z,92.08
2023-11-18T08:06:49.633Z,91.77
2023-11-18T08:07:49.652Z,92.19
2023-11-18T08:08:49.759Z,92.40
2023-11-18T08:09:49.620Z,91.88
2023-11-18T08:10:49.765Z,92.19
2023-11-18T08:11:49.581Z,92.50
2023-11-18T08:12:49.587Z,91.73
2023-11-18T08:13:49.615Z,92.35
2023-11-18T08:14:49.612Z,92.55
2023-11-18T08:15:49.743Z,92.35
2023-11-18T08:16:49.749Z,91.83
2023-11-18T08:17:49.644Z,92.35
2023-11-18T08:18:49.513Z,92.25
2023-11-18T08:19:49.532Z,92.04
2023-11-18T08:20:49.544Z,92.00
2023-11-18T08:21:49.480Z,92.55
2023-11-18T08:22:49.579Z,91.79
2023-11-18T08:23:51.332Z,91.79
2023-11-18T08:24:49.435Z,92.35
2023-11-18T08:25:49.478Z,92.41
2023-11-18T08:26:49.496Z,92.41
2023-11-18T08:27:49.405Z,92.31
2023-11-18T08:28:49.662Z,92.10
2023-11-18T08:29:49.381Z,91.79
2023-11-18T08:30:49.440Z,91.69
2023-11-18T08:31:49.477Z,91.69
2023-11-18T08:32:49.488Z,91.48
2023-11-18T08:33:49.362Z,91.79
2023-11-18T08:34:49.485Z,91.79
2023-11-18T08:35:49.316Z,91.69
2023-11-18T08:36:49.309Z,91.79
2023-11-18T08:37:49.384Z,91.89
2023-11-18T08:38:49.305Z,92.21
2023-11-18T08:39:49.275Z,91.79
2023-11-18T08:40:49.290Z,91.89
2023-11-18T08:41:49.242Z,91.89
2023-11-18T08:42:49.306Z,92.31
2023-11-18T08:43:49.270Z,91.64
2023-11-18T08:44:49.314Z,91.75
2023-11-18T08:45:49.233Z,92.16
2023-11-18T08:46:49.275Z,92.27
2023-11-18T08:47:49.217Z,92.27
2023-11-18T08:48:49.245Z,91.75
2023-11-18T08:49:49.187Z,92.06
2023-11-18T08:50:49.180Z,91.75
2023-11-18T08:51:49.148Z,91.96
2023-11-18T08:52:49.203Z,91.81
2023-11-18T08:53:49.120Z,91.71
2023-11-18T08:54:49.127Z,91.50
2023-11-18T08:55:49.108Z,91.81
2023-11-18T08:56:49.112Z,91.81
2023-11-18T08:57:49.066Z,91.91
2023-11-18T08:58:49.087Z,91.40
2023-11-18T08:59:49.046Z,92.02
2023-11-18T09:00:49.073Z,91.40
2023-11-18T09:01:49.131Z,91.30
2023-11-18T09:02:54.227Z,90.99
2023-11-18T09:03:50.464Z,91.09
2023-11-18T09:04:49.013Z,91.09
2023-11-18T09:05:48.976Z,91.60
2023-11-18T09:06:48.966Z,91.97
2023-11-18T09:07:48.981Z,91.97
2023-11-18T09:08:48.993Z,91.87
2023-11-18T09:09:48.990Z,91.87
2023-11-18T09:10:48.930Z,91.25
2023-11-18T09:11:48.938Z,90.94
2023-11-18T09:12:48.901Z,90.94
2023-11-18T09:13:48.962Z,91.36
2023-11-18T09:14:48.890Z,91.66
2023-11-18T09:15:48.874Z,91.97
2023-11-18T09:16:48.846Z,91.25
2023-11-18T09:17:48.958Z,90.64
2023-11-18T09:18:48.999Z,90.53
2023-11-18T09:19:48.964Z,91.05
2023-11-18T09:20:48.871Z,90.94
2023-11-18T09:21:48.819Z,91.36
2023-11-18T09:22:48.852Z,90.94
2023-11-18T09:23:48.773Z,91.05
2023-11-18T09:24:48.810Z,91.05
2023-11-18T09:25:48.779Z,90.94
2023-11-18T09:26:48.965Z,91.15
2023-11-18T09:27:48.720Z,90.84
2023-11-18T09:28:48.768Z,90.64
2023-11-18T09:29:48.703Z,90.94
2023-11-18T09:30:48.689Z,91.05
2023-11-18T09:31:48.800Z,91.15
2023-11-18T09:32:49.016Z,90.94
2023-11-18T09:33:48.649Z,90.94
2023-11-18T09:34:48.695Z,90.53
2023-11-18T09:35:48.628Z,90.84
2023-11-18T09:36:48.683Z,91.25
2023-11-18T09:37:48.626Z,91.56
2023-11-18T09:38:49.399Z,91.77
2023-11-18T09:39:48.582Z,91.93
2023-11-18T09:40:48.736Z,91.72
2023-11-18T09:41:48.562Z,91.93
2023-11-18T09:42:48.643Z,91.72
2023-11-18T09:43:49.357Z,91.36
2023-11-18T09:44:48.547Z,90.84
2023-11-18T09:45:48.599Z,91.21
2023-11-18T09:46:48.582Z,91.05
2023-11-18T09:47:48.580Z,90.90
2023-11-18T09:48:48.741Z,91.36
2023-11-18T09:49:48.503Z,91.31
2023-11-18T09:50:48.589Z,91.72
2023-11-18T09:51:48.682Z,92.14
2023-11-18T09:52:48.498Z,92.03
2023-11-18T09:53:48.422Z,91.72
2023-11-18T09:54:48.465Z,91.52
2023-11-18T09:55:48.456Z,90.94
2023-11-18T09:56:48.480Z,91.00
2023-11-18T09:57:48.385Z,91.21
2023-11-18T09:58:48.454Z,91.93
2023-11-18T09:59:48.368Z,91.93
2023-11-18T10:00:48.445Z,91.93
2023-11-18T10:01:48.440Z,91.72
2023-11-18T10:02:48.535Z,92.08
2023-11-18T10:03:48.388Z,91.83
2023-11-18T10:04:48.339Z,91.42
2023-11-18T10:05:48.282Z,91.31
2023-11-18T10:06:48.398Z,91.72
2023-11-18T10:07:48.296Z,90.90
2023-11-18T10:08:48.371Z,91.05
2023-11-18T10:09:48.235Z,90.94
2023-11-18T10:10:48.249Z,91.05
2023-11-18T10:11:48.219Z,90.73
2023-11-18T10:12:48.224Z,90.94
2023-11-18T10:13:48.199Z,90.84
2023-11-18T10:14:48.235Z,90.78
2023-11-18T10:15:50.799Z,90.73
2023-11-18T10:16:48.571Z,90.78
2023-11-18T10:17:48.164Z,90.67
2023-11-18T10:18:48.160Z,90.78
2023-11-18T10:19:48.152Z,90.57
2023-11-18T10:20:48.178Z,90.67
2023-11-18T10:21:48.105Z,90.78
2023-11-18T10:22:48.123Z,90.88
2023-11-18T10:23:48.078Z,90.88
2023-11-18T10:24:48.112Z,91.09
2023-11-18T10:25:48.088Z,90.57
2023-11-18T10:26:48.157Z,91.09
2023-11-18T10:27:48.040Z,90.78
2023-11-18T10:28:48.058Z,90.88
2023-11-18T10:29:48.011Z,90.67
2023-11-18T10:30:48.091Z,90.26
2023-11-18T10:31:48.005Z,90.37
2023-11-18T10:32:48.136Z,90.67
2023-11-18T10:33:48.015Z,90.47
2023-11-18T10:34:47.970Z,90.06
2023-11-18T10:35:47.965Z,90.00
2023-11-18T10:36:47.965Z,90.31
2023-11-18T10:37:47.950Z,90.00
2023-11-18T10:38:47.926Z,90.41
2023-11-18T10:39:47.927Z,90.82
2023-11-18T10:40:47.985Z,90.86
2023-11-18T10:41:47.878Z,90.82
2023-11-18T10:42:47.948Z,90.82
2023-11-18T10:43:47.964Z,91.24
2023-11-18T10:44:47.873Z,90.72
2023-11-18T10:45:47.919Z,90.86
2023-11-18T10:46:47.901Z,90.72
2023-11-18T10:47:47.857Z,90.66
2023-11-18T10:48:47.800Z,90.86
2023-11-18T10:49:47.818Z,90.82
2023-11-18T10:50:47.851Z,90.51
2023-11-18T10:51:47.769Z,90.72
2023-11-18T10:52:47.806Z,90.86
2023-11-18T10:53:47.747Z,90.76
2023-11-18T10:54:47.761Z,90.86
2023-11-18T10:55:47.811Z,90.72
2023-11-18T10:56:47.751Z,90.92
2023-11-18T10:57:47.698Z,90.82
2023-11-18T10:58:47.705Z,91.03
2023-11-18T10:59:47.722Z,90.72
2023-11-18T11:00:47.663Z,90.10
2023-11-18T11:01:47.695Z,90.10
2023-11-18T11:02:47.762Z,89.89
2023-11-18T11:03:47.652Z,90.20
2023-11-18T11:04:47.659Z,90.41
2023-11-18T11:05:47.695Z,90.04
2023-11-18T11:06:47.600Z,90.61
2023-11-18T11:07:47.636Z,90.76
2023-11-18T11:08:47.720Z,90.25
2023-11-18T11:09:47.617Z,90.25
2023-11-18T11:10:47.580Z,90.55
2023-11-18T11:11:47.548Z,90.14
2023-11-18T11:12:47.562Z,90.35
2023-11-18T11:13:47.532Z,90.14
2023-11-18T11:14:47.573Z,90.45
2023-11-18T11:15:55.008Z,90.45
2023-11-18T11:16:48.670Z,90.55
2023-11-18T11:17:47.586Z,90.35
2023-11-18T11:18:47.488Z,90.55
2023-11-18T11:19:47.475Z,90.31
2023-11-18T11:20:47.467Z,90.45
2023-11-18T11:21:47.461Z,90.86
2023-11-18T11:22:47.522Z,90.76
2023-11-18T11:23:47.431Z,90.55
2023-11-18T11:24:47.450Z,90.72
2023-11-18T11:25:47.532Z,90.55
2023-11-18T11:26:47.592Z,90.86
2023-11-18T11:27:47.486Z,90.66
2023-11-18T11:28:47.610Z,90.25
2023-11-18T11:29:47.339Z,90.76
2023-11-18T11:30:47.430Z,90.97
2023-11-18T11:31:47.353Z,90.66
2023-11-18T11:32:47.364Z,90.76
2023-11-18T11:33:47.331Z,90.86
2023-11-18T11:34:47.312Z,90.86
2023-11-18T11:35:47.272Z,90.76
2023-11-18T11:36:47.260Z,91.07
2023-11-18T11:37:47.284Z,90.86
2023-11-18T11:38:47.261Z,90.25
2023-11-18T11:39:47.299Z,90.45
2023-11-18T11:40:47.224Z,89.83
2023-11-18T11:41:47.317Z,90.35
2023-11-18T11:42:47.198Z,90.14
2023-11-18T11:43:47.225Z,90.55
2023-11-18T11:44:47.212Z,90.35
2023-11-18T11:45:47.174Z,90.49
2023-11-18T11:46:47.227Z,90.28
2023-11-18T11:47:47.464Z,90.39
2023-11-18T11:48:47.148Z,90.28
2023-11-18T11:49:47.133Z,90.33
2023-11-18T11:50:47.115Z,90.64
2023-11-18T11:51:47.135Z,90.12
2023-11-18T11:52:47.096Z,90.43
2023-11-18T11:53:47.092Z,90.74
2023-11-18T11:54:47.098Z,90.95
2023-11-18T11:55:47.084Z,90.95
2023-11-18T11:56:47.063Z,90.95
2023-11-18T11:57:47.022Z,91.16
2023-11-18T11:58:47.050Z,90.95
2023-11-18T11:59:47.020Z,90.84
2023-11-18T12:00:47.014Z,90.95
2023-11-18T12:01:47.051Z,90.95
2023-11-18T12:02:47.096Z,90.99
2023-11-18T12:03:47.034Z,90.99
2023-11-18T12:04:47.034Z,91.05
2023-11-18T12:05:46.978Z,91.16
2023-11-18T12:06:46.918Z,91.16
2023-11-18T12:07:47.112Z,91.26
2023-11-18T12:08:47.015Z,91.20
2023-11-18T12:09:46.949Z,91.05
2023-11-18T12:10:46.952Z,91.30
2023-11-18T12:11:46.882Z,91.30
2023-11-18T12:12:46.852Z,90.78
2023-11-18T12:13:46.945Z,90.78
2023-11-18T12:14:46.858Z,91.40
2023-11-18T12:15:46.875Z,91.20
2023-11-18T12:16:46.857Z,91.20
2023-11-18T12:17:46.812Z,91.30
2023-11-18T12:18:46.781Z,91.30
2023-11-18T12:19:46.870Z,90.78
2023-11-18T12:20:46.794Z,91.30
2023-11-18T12:21:46.789Z,90.89
2023-11-18T12:22:46.743Z,91.20
2023-11-18T12:23:46.733Z,91.30
2023-11-18T12:24:46.711Z,91.71
2023-11-18T12:25:46.831Z,91.50
2023-11-18T12:26:46.759Z,92.23
2023-11-18T12:27:46.679Z,92.02
2023-11-18T12:28:46.845Z,91.20
2023-11-18T12:29:46.663Z,90.89
2023-11-18T12:30:46.660Z,91.09
2023-11-18T12:31:46.687Z,91.30
2023-11-18T12:32:46.749Z,91.20
2023-11-18T12:33:46.614Z,90.99
2023-11-18T12:34:46.665Z,90.89
2023-11-18T12:35:49.764Z,90.68
2023-11-18T12:36:46.580Z,91.30
2023-11-18T12:37:46.750Z,91.09
2023-11-18T12:38:46.608Z,91.30
2023-11-18T12:39:46.595Z,90.89
2023-11-18T12:40:46.547Z,90.99
2023-11-18T12:41:46.520Z,90.89
2023-11-18T12:42:46.513Z,91.20
2023-11-18T12:43:46.596Z,91.30
2023-11-18T12:44:46.543Z,91.09
2023-11-18T12:45:46.496Z,91.20
2023-11-18T12:46:46.595Z,90.99
2023-11-18T12:47:46.507Z,90.89
2023-11-18T12:48:46.467Z,90.99
2023-11-18T12:49:46.550Z,91.40
2023-11-18T12:50:46.528Z,91.20
2023-11-18T12:51:46.418Z,91.30
2023-11-18T12:52:46.567Z,90.89